Latest Weather Observations for Scone Airport

IDN60801

Issued at 6:23 pm EST Saturday 9 May 2026 (issued every 10 minutes, with the page automatically refreshed every 10 minutes)

About weather observations | Map of weather stations | Latest weather observations for NSW | Other Formats
Station Details ID: 061363 Name: SCONE AIRPORT AWS Lat: -32.03 Lon: 150.83 Height: 221.4 m
Data from the previous 72 hours. | See also: Recent months at Scone Airport
Date/Time
EST
Temp
°C
App
Temp
°C
Dew
Point
°C
Rel
Hum
%
Delta-T
°C
Wind Press
QNH
hPa
Press
MSL
hPa
Rain since
9am
mm
Dir  Spd
km/h
Gust
km/h
Spd
kts
Gust
kts
09/06:00pm 13.0 11.5 4.9 58 3.8 WSW 2 6 1 3 1024.0 1023.9 0.0
09/05:30pm 15.5 13.1 5.1 50 5.0 SSW 7 9 4 5 1023.7 1023.6 0.0
09/05:00pm 18.1 15.0 5.7 44 6.1 S 11 13 6 7 1023.2 1023.1 0.0
09/04:30pm 19.9 16.8 5.5 39 7.2 S 11 15 6 8 1022.9 1022.8 0.0
09/04:00pm 20.4 17.6 5.2 37 7.5 SSE 9 13 5 7 1022.8 1022.7 0.0
09/03:30pm 21.0 18.5 5.0 35 7.9 S 7 15 4 8 1022.7 1022.6 0.0
09/03:00pm 20.5 17.6 4.5 35 7.8 SSE 9 15 5 8 1022.6 1022.5 0.0
09/02:30pm 21.5 18.8 5.8 36 7.9 SSW 9 15 5 8 1022.7 1022.6 0.0
09/02:00pm 20.5 17.3 5.3 37 7.5 S 11 19 6 10 1022.7 1022.6 0.0
09/01:30pm 20.0 16.8 5.3 38 7.3 S 11 19 6 10 1022.9 1022.8 0.0
09/01:00pm 19.5 16.6 6.3 42 6.6 SSE 11 17 6 9 1023.3 1023.2 0.0
09/12:30pm 19.6 16.9 7.4 45 6.3 SSE 11 19 6 10 1023.7 1023.6 0.0
09/12:00pm 18.9 16.6 7.4 47 5.9 S 9 17 5 9 1024.3 1024.2 0.0
09/11:30am 18.3 16.2 6.8 47 5.8 SSE 7 15 4 8 1024.7 1024.6 0.0
09/11:00am 17.5 15.7 7.0 50 5.3 SSE 6 11 3 6 1025.2 1025.2 0.0
09/10:30am 17.0 16.1 7.9 55 4.7 ESE 2 7 1 4 1025.5 1025.5 0.0
09/10:00am 15.2 14.0 8.0 62 3.6 SE 4 7 2 4 1025.8 1025.8 0.0
09/09:30am 13.9 13.0 7.7 66 3.1 ENE 2 6 1 3 1026.1 1026.0 0.0
09/09:00am 11.0 9.5 6.9 76 2.0 SE 4 7 2 4 1026.3 1026.2 0.0
09/08:30am 9.5 8.8 6.8 83 1.3 CALM 0 0 0 0 1026.1 1026.0 0.0
09/08:00am 7.8 7.1 7.1 95 0.3 CALM 0 0 0 0 1025.7 1025.7 0.0
09/07:30am 4.7 3.5 4.6 99 0.0 CALM 0 0 0 0 1025.5 1025.5 0.0
09/07:06am 3.0 1.1 2.9 99 0.0 W 2 6 1 3 1025.2 1025.2 0.0
09/07:00am 2.7 1.1 2.6 99 0.0 CALM 0 0 0 0 1025.1 1025.1 0.0
09/06:44am 2.4 0.0 2.1 98 0.1 W 4 6 2 3 1024.9 1024.8 0.0
09/06:30am 2.5 0.5 2.4 99 0.0 WNW 2 6 1 3 1024.7 1024.6 0.0
09/06:16am 2.2 0.5 1.9 98 0.1 CALM 0 0 0 0 1024.5 1024.4 0.0
09/06:00am 2.5 0.9 2.2 98 0.1 CALM 0 0 0 0 1024.3 1024.2 0.0
09/05:57am 2.3 0.6 1.9 97 0.2 CALM 0 0 0 0 1024.2 1024.1 0.0
09/05:30am 3.0 1.1 2.6 97 0.2 WNW 2 6 1 3 1023.8 1023.7 0.0
09/05:00am 3.6 1.0 3.2 97 0.2 W 6 7 3 4 1023.5 1023.4 0.0
09/04:30am 3.5 2.0 3.1 97 0.2 CALM 0 0 0 0 1023.5 1023.4 0.0
09/04:00am 3.9 2.5 3.5 97 0.2 CALM 0 0 0 0 1023.4 1023.3 0.0
09/03:30am 3.9 1.7 3.2 95 0.3 NNE 4 6 2 3 1023.1 1023.0 0.0
09/03:00am 4.3 2.9 3.6 95 0.3 CALM 0 6 0 3 1023.3 1023.2 0.0
09/02:30am 4.5 2.3 3.5 93 0.4 NNE 4 7 2 4 1023.3 1023.2 0.0
09/02:00am 5.2 3.9 4.2 93 0.4 CALM 0 2 0 1 1023.2 1023.1 0.0
09/01:30am 5.2 2.4 3.4 88 0.8 NNE 7 9 4 5 1023.3 1023.2 0.0
09/01:00am 5.7 3.2 4.0 89 0.7 NE 6 6 3 3 1023.2 1023.1 0.0
09/12:30am 6.8 4.2 4.3 84 1.1 N 7 9 4 5 1022.9 1022.8 0.0
09/12:00am 7.2 4.4 5.0 86 1.0 NE 9 11 5 6 1023.0 1022.9 0.0
 
Date/Time
EST
Temp
°C
App
Temp
°C
Dew
Point
°C
Rel
Hum
%
Delta-T
°C
Wind Press
QNH
hPa
Press
MSL
hPa
Rain since
9am
mm
Dir  Spd
km/h
Gust
km/h
Spd
kts
Gust
kts
08/11:30pm 6.7 4.1 4.4 85 1.0 NE 7 11 4 6 1023.1 1023.0 0.0
08/11:00pm 7.6 6.4 4.7 82 1.3 CALM 0 6 0 3 1023.2 1023.1 0.0
08/10:30pm 8.6 6.3 5.0 78 1.6 NE 6 9 3 5 1023.2 1023.1 0.0
08/10:00pm 9.9 8.3 4.7 70 2.3 ENE 2 7 1 4 1023.3 1023.2 0.0
08/09:30pm 11.4 9.0 5.1 65 2.9 NNE 7 11 4 6 1023.2 1023.1 0.0
08/09:00pm 12.3 9.8 5.0 61 3.4 NNW 7 13 4 7 1023.0 1022.9 0.0
08/08:30pm 13.3 9.8 5.5 59 3.7 W 13 24 7 13 1022.7 1022.6 0.0
08/08:00pm 12.5 8.9 5.2 61 3.4 N 13 17 7 9 1022.5 1022.4 0.0
08/07:30pm 13.0 10.6 5.2 59 3.7 NNE 7 17 4 9 1022.0 1021.9 0.0
08/07:00pm 13.7 8.1 5.3 57 4.0 WNW 24 41 13 22 1021.2 1021.2 0.0
08/06:37pm 14.3 7.6 5.4 55 4.2 W 30 50 16 27 1020.7 1020.6 0.0
08/06:30pm 14.2 7.8 5.3 55 4.2 WNW 28 41 15 22 1020.5 1020.4 0.0
08/06:14pm 14.7 8.4 5.5 54 4.4 W 28 46 15 25 1020.4 1020.3 0.0
08/06:00pm 14.9 10.1 5.4 53 4.5 WNW 20 35 11 19 1020.2 1020.1 0.0
08/05:30pm 15.4 10.4 4.8 49 5.0 WNW 20 32 11 17 1019.8 1019.7 0.0
08/05:00pm 16.3 10.6 5.0 47 5.4 W 24 35 13 19 1019.0 1018.9 0.0
08/04:30pm 17.3 10.1 4.9 44 6.0 WNW 32 39 17 21 1018.6 1018.5 0.0
08/04:00pm 18.0 11.2 4.9 42 6.3 WNW 30 41 16 22 1018.6 1018.5 0.0
08/03:30pm 18.8 13.2 5.3 41 6.6 W 24 32 13 17 1018.7 1018.6 0.0
08/03:00pm 18.8 12.3 4.6 39 6.9 W 28 43 15 23 1018.6 1018.5 0.0
08/02:30pm 19.1 12.6 4.8 39 7.0 WNW 28 39 15 21 1018.6 1018.5 0.0
08/02:00pm 19.3 13.2 4.6 38 7.1 W 26 37 14 20 1018.6 1018.5 0.0
08/01:30pm 19.0 12.9 4.7 39 7.0 WNW 26 43 14 23 1019.0 1018.9 0.0
08/01:00pm 18.4 11.5 4.6 40 6.7 WNW 30 44 16 24 1019.4 1019.3 0.0
08/12:30pm 17.7 11.4 3.9 40 6.5 WNW 26 37 14 20 1020.0 1019.9 0.0
08/12:00pm 17.2 10.6 4.2 42 6.2 W 28 39 15 21 1020.4 1020.3 0.0
08/11:30am 16.1 10.1 3.2 42 6.0 WNW 24 37 13 20 1021.0 1020.9 0.0
08/11:00am 15.9 10.4 4.0 45 5.6 WNW 22 39 12 21 1021.5 1021.4 0.0
08/10:30am 15.1 9.6 3.9 47 5.2 WNW 22 32 12 17 1021.9 1021.8 0.0
08/10:00am 14.2 9.2 3.4 48 4.9 WNW 19 32 10 17 1022.0 1021.9 0.0
08/09:30am 13.4 8.7 3.2 50 4.6 WNW 17 30 9 16 1022.4 1022.3 0.0
08/09:00am 12.5 8.2 3.5 54 4.0 WNW 15 20 8 11 1022.4 1022.3 0.0
08/08:30am 11.4 6.3 3.2 57 3.6 WNW 19 28 10 15 1022.5 1022.4 0.0
08/08:00am 10.3 5.8 2.4 58 3.4 NW 15 24 8 13 1022.2 1022.1 0.0
08/07:30am 9.3 6.3 2.2 61 3.0 NNW 7 15 4 8 1022.5 1022.4 0.0
08/07:00am 8.1 3.5 1.7 64 2.6 NW 15 28 8 15 1022.3 1022.2 0.0
08/06:30am 7.6 3.0 1.5 65 2.5 NW 15 22 8 12 1022.3 1022.2 0.0
08/06:00am 7.8 3.2 1.4 64 2.6 NW 15 22 8 12 1022.1 1022.0 0.0
08/05:30am 6.9 3.7 0.8 65 2.5 NNW 7 17 4 9 1021.6 1021.5 0.0
08/05:00am 7.4 3.8 0.8 63 2.7 NNE 9 15 5 8 1021.5 1021.4 0.0
08/04:30am 7.4 2.7 0.6 62 2.7 NW 15 24 8 13 1021.4 1021.3 0.0
08/04:00am 7.7 3.0 0.7 61 2.8 WNW 15 30 8 16 1021.1 1021.0 0.0
08/03:30am 7.6 2.8 0.3 60 2.9 NW 15 32 8 17 1021.2 1021.2 0.0
08/03:00am 7.3 3.3 0.3 61 2.8 WNW 11 15 6 8 1021.5 1021.4 0.0
08/02:30am 6.9 3.3 0.4 63 2.6 NW 9 17 5 9 1021.7 1021.6 0.0
08/02:00am 7.3 3.3 0.3 61 2.8 WNW 11 19 6 10 1021.8 1021.7 0.0
08/01:30am 7.5 3.4 0.0 59 3.0 WNW 11 22 6 12 1021.9 1021.8 0.0
08/01:00am 7.6 3.9 -0.1 58 3.0 NW 9 15 5 8 1021.9 1021.8 0.0
08/12:30am 8.4 4.3 -0.4 54 3.5 NW 11 17 6 9 1022.2 1022.1 0.0
08/12:00am 8.6 4.1 -0.4 53 3.6 N 13 20 7 11 1022.1 1022.0 0.0
 
Date/Time
EST
Temp
°C
App
Temp
°C
Dew
Point
°C
Rel
Hum
%
Delta-T
°C
Wind Press
QNH
hPa
Press
MSL
hPa
Rain since
9am
mm
Dir  Spd
km/h
Gust
km/h
Spd
kts
Gust
kts
07/11:30pm 8.8 4.6 -0.8 51 3.8 N 11 17 6 9 1022.1 1022.0 0.0
07/11:00pm 9.1 4.8 -1.3 48 4.0 N 11 17 6 9 1022.0 1021.9 0.0
07/10:30pm 9.5 4.9 -0.9 48 4.1 NNE 13 20 7 11 1021.7 1021.6 0.0
07/10:00pm 7.9 4.6 -1.3 52 3.5 NE 6 11 3 6 1022.0 1021.9 0.0
07/09:30pm 9.6 5.6 -2.0 44 4.5 W 9 22 5 12 1022.1 1022.0 0.0
07/09:00pm 8.5 3.8 -1.9 48 4.0 ENE 13 20 7 11 1021.9 1021.8 0.0
07/08:30pm 9.7 5.7 -2.6 42 4.7 SW 9 19 5 10 1021.6 1021.5 0.0
07/08:00pm 10.0 3.5 -2.3 42 4.7 W 22 35 12 19 1021.0 1020.9 0.0
07/07:30pm 10.2 4.2 -2.8 40 5.0 W 19 30 10 16 1021.1 1021.0 0.0
07/07:00pm 10.7 4.7 -3.0 38 5.2 W 19 24 10 13 1020.9 1020.8 0.0
07/06:30pm 11.1 5.4 -3.8 35 5.6 W 17 32 9 17 1020.4 1020.3 0.0
07/06:00pm 11.6 5.0 -3.7 34 5.8 W 22 35 12 19 1019.8 1019.7 0.0
07/05:30pm 12.1 5.9 -4.5 31 6.2 WSW 19 30 10 16 1019.0 1018.9 0.0
07/05:00pm 13.1 4.5 -4.1 30 6.6 W 32 43 17 23 1018.2 1018.1 0.0
07/04:30pm 14.3 5.2 -3.9 28 7.1 W 35 50 19 27 1018.2 1018.1 0.0
07/04:00pm 15.1 5.9 -4.8 25 7.7 W 35 48 19 26 1018.1 1018.0 0.0
07/03:30pm 15.7 6.9 -4.2 25 7.8 W 33 44 18 24 1017.6 1017.5 0.0
07/03:09pm 16.3 7.6 -3.7 25 8.0 W 33 52 18 28 1017.6 1017.5 0.0
07/03:00pm 16.0 7.0 -3.0 27 7.7 W 35 48 19 26 1017.5 1017.4 0.0
07/02:49pm 16.3 7.8 -1.7 29 7.5 W 33 52 18 28 1017.3 1017.1 0.0
07/02:30pm 16.5 6.1 -2.0 28 7.7 W 43 57 23 31 1017.4 1017.2 0.0
07/02:00pm 16.9 9.0 2.1 37 6.7 W 33 54 18 29 1016.8 1016.6 0.0
07/01:55pm 15.2 7.2 1.4 39 6.1 W 33 54 18 29 1016.7 1016.5 0.0
07/01:30pm 15.5 9.3 6.0 53 4.6 WNW 28 41 15 22 1016.7 1016.5 0.0
07/01:04pm 15.6 7.4 4.9 49 5.1 WNW 37 54 20 29 1016.5 1016.4 0.0
07/01:00pm 16.0 7.4 4.7 47 5.4 WNW 39 59 21 32 1016.5 1016.4 0.0
07/12:59pm 15.9 6.9 4.6 47 5.4 WNW 41 59 22 32 1016.4 1016.3 0.0
07/12:33pm 15.8 8.2 5.7 51 4.9 W 35 54 19 29 1016.3 1016.2 0.0
07/12:30pm 16.2 9.0 6.1 51 5.0 W 33 48 18 26 1016.5 1016.4 0.0
07/12:04pm 15.4 8.2 7.7 60 3.9 W 35 54 19 29 1017.1 1016.9 0.0
07/12:00pm 15.1 8.2 7.2 59 3.9 W 33 46 18 25 1017.1 1016.9 0.0
07/11:30am 16.7 9.4 7.4 54 4.7 WNW 35 46 19 25 1017.1 1016.9 0.0
07/11:00am 16.5 10.4 6.6 52 4.9 W 28 39 15 21 1017.3 1017.1 0.0
07/10:30am 16.6 10.5 6.7 52 4.9 WNW 28 44 15 24 1017.5 1017.4 0.0
07/10:00am 14.8 9.0 6.1 56 4.2 WNW 26 37 14 20 1017.8 1017.7 0.0
07/09:30am 14.8 9.8 6.4 57 4.1 WNW 22 41 12 22 1017.9 1017.8 0.0
07/09:00am 15.5 11.0 6.8 56 4.3 WNW 20 30 11 16 1017.9 1017.8 0.0
07/08:30am 14.7 10.4 6.8 59 3.9 WNW 19 32 10 17 1017.9 1017.8 0.0
07/08:00am 13.9 9.3 6.7 62 3.5 WNW 20 28 11 15 1017.7 1017.6 0.0
07/07:30am 13.2 9.7 7.0 66 3.0 WNW 15 20 8 11 1017.4 1017.2 0.0
07/07:00am 12.7 8.1 6.7 67 2.9 NW 20 35 11 19 1017.1 1016.9 0.0
07/06:30am 12.4 9.1 6.2 66 3.0 NW 13 15 7 8 1016.4 1016.3 0.0
07/06:00am 12.2 8.9 6.3 67 2.8 NW 13 20 7 11 1016.0 1015.9 0.0
07/05:30am 12.6 8.6 6.6 67 2.9 NW 17 20 9 11 1015.9 1015.8 0.0
07/05:00am 12.9 9.3 6.9 67 2.9 WNW 15 20 8 11 1015.8 1015.7 0.0
07/04:30am 12.6 9.5 7.3 70 2.6 WNW 13 19 7 10 1015.7 1015.6 0.0
07/04:00am 13.6 9.0 8.0 69 2.8 WNW 22 33 12 18 1015.5 1015.4 0.0
07/03:30am 13.1 10.5 9.2 77 2.0 NW 13 20 7 11 1015.6 1015.5 0.0
07/03:00am 9.3 7.5 8.1 92 0.6 N 7 9 4 5 1015.6 1015.5 0.0
07/02:30am 9.4 9.0 8.2 92 0.6 CALM 0 6 0 3 1015.7 1015.6 0.0
07/02:00am 9.4 7.8 8.2 92 0.6 NE 6 9 3 5 1015.8 1015.7 0.0
07/01:30am 10.0 8.4 7.8 86 1.1 N 6 9 3 5 1015.9 1015.8 0.0
07/01:00am 12.4 10.7 8.5 77 2.0 NNE 7 11 4 6 1015.8 1015.7 0.0
07/12:30am 12.7 11.2 9.3 80 1.7 N 7 13 4 7 1015.7 1015.6 0.0
07/12:00am 11.5 9.8 9.9 90 0.8 NNE 9 13 5 7 1015.9 1015.8 0.0
 
Date/Time
EST
Temp
°C
App
Temp
°C
Dew
Point
°C
Rel
Hum
%
Delta-T
°C
Wind Press
QNH
hPa
Press
MSL
hPa
Rain since
9am
mm
Dir  Spd
km/h
Gust
km/h
Spd
kts
Gust
kts
06/11:30pm 11.2 10.2 10.4 95 0.4 NE 6 9 3 5 1016.0 1015.9 0.0
06/11:00pm 11.3 10.2 10.0 92 0.7 N 6 13 3 7 1016.0 1015.9 0.0
06/10:30pm 10.6 10.2 9.8 95 0.4 NE 2 7 1 4 1016.2 1016.1 0.0
06/10:00pm 10.5 10.4 9.4 93 0.6 CALM 0 6 0 3 1016.3 1016.2 0.0
06/09:30pm 11.2 10.9 10.0 92 0.6 NE 2 6 1 3 1016.4 1016.3 0.0
06/09:00pm 12.2 11.4 10.9 92 0.7 WNW 6 7 3 4 1016.5 1016.4 0.0
06/08:30pm 12.1 12.3 10.5 90 0.8 CALM 0 0 0 0 1016.7 1016.5 0.0
06/08:00pm 12.6 12.8 10.5 87 1.1 CALM 0 0 0 0 1016.5 1016.4 0.0
06/07:30pm 13.3 12.8 10.7 84 1.4 N 4 7 2 4 1016.5 1016.4 0.0
06/07:00pm 13.6 13.9 11.0 84 1.4 CALM 0 0 0 0 1016.5 1016.4 0.0
06/06:30pm 14.8 15.1 11.0 78 2.0 CALM 0 0 0 0 1016.3 1016.2 0.0

Other formats

Comma delimited format used in spreadsheet applications
http://www.bom.gov.au/fwo/IDN60801/IDN60801.95758.axf

JavaScript Object Notation format (JSON) in row-major order
http://www.bom.gov.au/fwo/IDN60801/IDN60801.95758.json

Data quality

Most of these data are generated automatically and are frequently updated. Quality checks on data are not normally performed. It is possible for incorrect values to appear. Refer to information at About Latest Weather Observations and please check the disclaimer before using these data.